createdAt,value
2023-01-22T00:03:58.919Z,93028.44
2023-01-22T00:09:04.110Z,93074.59
2023-01-22T00:14:08.005Z,93059.81
2023-01-22T00:19:12.040Z,93066.13
2023-01-22T00:24:15.307Z,93087.38
2023-01-22T00:29:19.495Z,93096.06
2023-01-22T00:34:22.509Z,93092.16
2023-01-22T00:39:26.721Z,93101.94
2023-01-22T00:44:29.913Z,93097.06
2023-01-22T00:49:33.995Z,93089.25
2023-01-22T00:54:37.829Z,93089.06
2023-01-22T00:59:41.587Z,93095.00
2023-01-22T01:04:45.286Z,93086.13
2023-01-22T01:09:48.910Z,93088.16
2023-01-22T01:14:52.601Z,93083.91
2023-01-22T01:19:55.744Z,93073.00
2023-01-22T01:24:58.899Z,93086.59
2023-01-22T01:30:02.118Z,93068.56
2023-01-22T01:35:06.334Z,93065.06
2023-01-22T01:40:10.457Z,93052.94
2023-01-22T01:45:29.153Z,93048.75
2023-01-22T01:50:32.364Z,93054.78
2023-01-22T01:55:38.712Z,93042.94
2023-01-22T02:00:45.113Z,93051.25
2023-01-22T02:05:48.373Z,93041.66
2023-01-22T02:10:52.463Z,93039.75
2023-01-22T02:15:56.243Z,93040.50
2023-01-22T02:21:01.362Z,93037.75
2023-01-22T02:26:04.763Z,93028.75
2023-01-22T02:31:08.758Z,93021.16
2023-01-22T02:36:12.091Z,93022.50
2023-01-22T02:41:15.727Z,93013.94
2023-01-22T02:46:20.295Z,93009.66
2023-01-22T02:51:23.441Z,93009.66
2023-01-22T02:56:26.698Z,93000.34
2023-01-22T03:01:29.965Z,92996.00
2023-01-22T03:06:36.118Z,92983.63
2023-01-22T03:11:41.823Z,92981.31
2023-01-22T03:17:08.349Z,92966.00
2023-01-22T03:22:12.298Z,92968.06
2023-01-22T03:27:15.907Z,92971.69
2023-01-22T03:32:20.124Z,92973.28
2023-01-22T03:37:23.673Z,92977.41
2023-01-22T03:42:30.219Z,92972.84
2023-01-22T03:47:33.384Z,92967.38
2023-01-22T03:52:39.316Z,92967.97
2023-01-22T03:57:42.670Z,92964.31
2023-01-22T04:02:46.544Z,92959.59
2023-01-22T04:07:57.257Z,92953.28
2023-01-22T04:13:05.166Z,92971.81
2023-01-22T04:18:08.980Z,92974.09
2023-01-22T04:23:26.673Z,92971.66
2023-01-22T04:28:30.009Z,92958.28
2023-01-22T04:33:34.837Z,92981.44
2023-01-22T04:38:45.591Z,92975.22
2023-01-22T04:43:48.675Z,92994.97
2023-01-22T04:48:52.468Z,92982.81
2023-01-22T04:53:55.739Z,92994.50
2023-01-22T04:59:01.731Z,92993.91
2023-01-22T05:04:05.101Z,92993.19
2023-01-22T05:09:10.661Z,93011.03
2023-01-22T05:14:26.957Z,92999.22
2023-01-22T05:19:30.887Z,92994.59
2023-01-22T05:24:34.733Z,92995.78
2023-01-22T05:29:38.548Z,92984.25
2023-01-22T05:35:00.759Z,92994.38
2023-01-22T05:40:05.608Z,92991.66
2023-01-22T05:45:11.591Z,92998.69
2023-01-22T05:50:25.695Z,93012.22
2023-01-22T05:55:38.136Z,93008.09
2023-01-22T06:00:41.436Z,93011.44
2023-01-22T06:05:47.376Z,93006.88
2023-01-22T06:10:59.232Z,93017.63
2023-01-22T06:16:02.998Z,92989.72
2023-01-22T06:21:24.807Z,92997.22
2023-01-22T06:26:29.908Z,92994.19
2023-01-22T06:31:35.274Z,93010.94
2023-01-22T06:36:43.649Z,93035.31
2023-01-22T06:41:49.331Z,93043.53
2023-01-22T06:46:53.132Z,93036.25
2023-01-22T06:52:07.255Z,93041.78
2023-01-22T06:57:10.266Z,93051.13
2023-01-22T07:02:20.041Z,93067.06
2023-01-22T07:07:23.381Z,93058.69
2023-01-22T07:12:26.504Z,93055.09
2023-01-22T07:17:29.993Z,93031.00
2023-01-22T07:22:33.507Z,93016.00
2023-01-22T07:27:38.764Z,93032.78
2023-01-22T07:32:42.801Z,93032.88
2023-01-22T07:37:58.107Z,93031.34
2023-01-22T07:43:07.040Z,93034.22
2023-01-22T07:48:13.728Z,93055.31
2023-01-22T07:53:18.168Z,93046.22
2023-01-22T07:58:22.001Z,93048.44
2023-01-22T08:03:25.952Z,93047.34
2023-01-22T08:08:29.441Z,93061.56
2023-01-22T08:13:32.689Z,93052.28
2023-01-22T08:18:36.807Z,93054.56
2023-01-22T08:23:39.970Z,93067.59
2023-01-22T08:28:43.297Z,93082.44
2023-01-22T08:33:46.834Z,93081.38
2023-01-22T08:38:50.749Z,93085.91
2023-01-22T08:43:54.472Z,93071.34
2023-01-22T08:48:58.580Z,93070.81
2023-01-22T08:54:01.983Z,93088.69
2023-01-22T08:59:06.894Z,93075.34
2023-01-22T09:04:11.638Z,93090.00
2023-01-22T09:09:14.821Z,93078.66
2023-01-22T09:14:18.126Z,93081.47
2023-01-22T09:19:21.765Z,93074.91
2023-01-22T09:24:25.551Z,93081.69
2023-01-22T09:29:28.675Z,93066.03
2023-01-22T09:34:33.702Z,93066.06
2023-01-22T09:39:36.878Z,93067.75
2023-01-22T09:44:44.969Z,93055.41
2023-01-22T09:50:05.110Z,93053.63
2023-01-22T09:55:19.336Z,93037.63
2023-01-22T10:00:33.875Z,93029.53
2023-01-22T10:05:52.233Z,93025.84
2023-01-22T10:10:56.381Z,93014.50
2023-01-22T10:16:01.783Z,92989.47
2023-01-22T10:21:11.566Z,92961.84
2023-01-22T10:26:25.303Z,92934.63
2023-01-22T10:31:33.988Z,92945.41
2023-01-22T10:36:38.006Z,92941.78
2023-01-22T10:41:43.404Z,92933.91
2023-01-22T10:46:46.931Z,92946.09
2023-01-22T10:51:54.272Z,92936.81
2023-01-22T10:57:28.372Z,92943.88
2023-01-22T11:02:35.821Z,92943.78
2023-01-22T11:07:39.655Z,92927.16
2023-01-22T11:13:29.308Z,92907.53
2023-01-22T11:18:37.005Z,92879.19
2023-01-22T11:23:49.784Z,92867.81
2023-01-22T11:29:13.900Z,92856.72
2023-01-22T11:34:26.472Z,92845.03
2023-01-22T11:39:59.838Z,92839.38
2023-01-22T11:45:18.899Z,92842.00
2023-01-22T11:50:25.516Z,92844.81
2023-01-22T11:55:54.907Z,92852.13
2023-01-22T12:01:07.612Z,92849.50
2023-01-22T12:06:28.590Z,92867.31
2023-01-22T12:11:54.040Z,92871.03
2023-01-22T12:17:13.457Z,92878.50
2023-01-22T12:22:19.610Z,92887.59
2023-01-22T12:27:36.298Z,92902.47
2023-01-22T12:32:43.536Z,92883.22
2023-01-22T12:37:53.366Z,92904.72
2023-01-22T12:43:02.434Z,92910.13
2023-01-22T12:48:24.567Z,92906.91
2023-01-22T12:53:36.828Z,92891.16
2023-01-22T12:58:42.390Z,92890.66
2023-01-22T13:04:04.896Z,92895.66
2023-01-22T13:09:25.510Z,92873.63
2023-01-22T13:14:31.728Z,92874.06
2023-01-22T13:19:42.574Z,92876.78
2023-01-22T13:25:03.699Z,92886.69
2023-01-22T13:30:28.378Z,92886.56
2023-01-22T13:35:31.635Z,92875.84
2023-01-22T13:40:50.261Z,92886.06
2023-01-22T13:45:56.634Z,92880.25
2023-01-22T13:51:03.832Z,92874.13
2023-01-22T13:56:12.165Z,92840.13
2023-01-22T14:01:28.933Z,92841.94
2023-01-22T14:06:43.948Z,92835.53
2023-01-22T14:11:48.678Z,92833.09
2023-01-22T14:16:53.531Z,92837.41
2023-01-22T14:21:58.865Z,92818.19
2023-01-22T14:27:01.988Z,92825.22
2023-01-22T14:32:05.992Z,92796.50
2023-01-22T14:37:09.060Z,92837.50
2023-01-22T14:42:12.684Z,92851.53
2023-01-22T14:47:15.777Z,92846.72
2023-01-22T14:52:18.956Z,92837.97
2023-01-22T14:57:23.809Z,92839.28
2023-01-22T15:02:27.268Z,92836.75
2023-01-22T15:07:30.498Z,92839.38
2023-01-22T15:12:33.872Z,92831.75
2023-01-22T15:17:37.495Z,92831.34
2023-01-22T15:22:40.995Z,92820.91
2023-01-22T15:27:46.133Z,92838.09
2023-01-22T15:32:50.016Z,92825.34
2023-01-22T15:37:53.456Z,92809.63
2023-01-22T15:42:56.961Z,92823.56
2023-01-22T15:48:00.455Z,92833.53
2023-01-22T15:53:03.606Z,92840.53
2023-01-22T15:58:07.128Z,92829.50
2023-01-22T16:03:10.866Z,92849.50
2023-01-22T16:08:14.994Z,92857.81
2023-01-22T16:13:18.391Z,92849.09
2023-01-22T16:18:22.395Z,92855.56
2023-01-22T16:23:25.635Z,92854.47
2023-01-22T16:28:28.869Z,92859.03
2023-01-22T16:33:33.987Z,92854.50
2023-01-22T16:38:37.506Z,92866.88
2023-01-22T16:43:40.918Z,92862.47
2023-01-22T16:48:45.136Z,92890.34
2023-01-22T16:53:48.834Z,92880.47
2023-01-22T16:58:52.435Z,92893.63
2023-01-22T17:03:56.266Z,92878.47
2023-01-22T17:09:00.342Z,92883.63
2023-01-22T17:14:07.537Z,92878.47
2023-01-22T17:19:12.466Z,92879.97
2023-01-22T17:24:17.161Z,92893.19
2023-01-22T17:29:23.237Z,92903.88
2023-01-22T17:34:28.556Z,92890.66
2023-01-22T17:39:33.121Z,92901.13
2023-01-22T17:44:39.611Z,92911.38
2023-01-22T17:49:43.562Z,92893.97
2023-01-22T17:54:47.111Z,92908.41
2023-01-22T17:59:51.660Z,92903.88
2023-01-22T18:04:56.064Z,92901.38
2023-01-22T18:09:59.201Z,92904.50
2023-01-22T18:15:02.293Z,92896.25
2023-01-22T18:20:07.075Z,92918.69
2023-01-22T18:25:10.902Z,92904.16
2023-01-22T18:30:15.625Z,92937.44
2023-01-22T18:35:19.741Z,92941.72
2023-01-22T18:40:23.218Z,92939.47
2023-01-22T18:45:27.384Z,92937.41
2023-01-22T18:50:31.438Z,92944.22
2023-01-22T18:55:36.345Z,92941.72
2023-01-22T19:00:39.555Z,92942.72
2023-01-22T19:05:43.661Z,92949.06
2023-01-22T19:10:47.429Z,92957.13
2023-01-22T19:15:51.452Z,92948.81
2023-01-22T19:20:54.859Z,92936.72
2023-01-22T19:26:11.137Z,92953.13
2023-01-22T19:31:19.567Z,92960.47
2023-01-22T19:36:30.168Z,92953.63
2023-01-22T19:41:33.379Z,92966.66
2023-01-22T19:46:38.225Z,92955.97
2023-01-22T19:51:41.618Z,92960.16
2023-01-22T19:56:45.843Z,92966.09
2023-01-22T20:01:50.900Z,92961.81
2023-01-22T20:07:05.227Z,92961.09
2023-01-22T20:12:10.716Z,92969.56
2023-01-22T20:17:14.435Z,92950.56
2023-01-22T20:22:17.965Z,92964.47
2023-01-22T20:27:21.723Z,92966.72
2023-01-22T20:32:25.639Z,92970.31
2023-01-22T20:37:28.882Z,92975.91
2023-01-22T20:42:32.443Z,92985.78
2023-01-22T20:47:36.981Z,92993.28
2023-01-22T20:52:40.261Z,93004.84
2023-01-22T20:57:43.635Z,92996.09
2023-01-22T21:02:50.213Z,93008.97
2023-01-22T21:07:53.915Z,93018.06
2023-01-22T21:12:57.588Z,93020.63
2023-01-22T21:18:01.180Z,93035.75
2023-01-22T21:23:04.826Z,93034.16
2023-01-22T21:28:07.977Z,93023.47
2023-01-22T21:33:12.139Z,93037.63
2023-01-22T21:38:15.722Z,93043.41
2023-01-22T21:43:38.208Z,93045.72
2023-01-22T21:48:41.320Z,93066.75
2023-01-22T21:53:45.323Z,93063.34
2023-01-22T21:58:48.966Z,93055.63
2023-01-22T22:03:52.813Z,93042.84
2023-01-22T22:08:58.313Z,93044.47
2023-01-22T22:14:02.070Z,93029.19
2023-01-22T22:19:05.613Z,93042.06
2023-01-22T22:24:10.090Z,93031.34
2023-01-22T22:29:13.814Z,93009.53
2023-01-22T22:34:17.556Z,93026.19
2023-01-22T22:39:21.026Z,93039.84
2023-01-22T22:44:24.354Z,93049.59
2023-01-22T22:49:27.631Z,93054.00
2023-01-22T22:54:30.696Z,93064.06
2023-01-22T22:59:34.766Z,93072.97
2023-01-22T23:04:38.210Z,93063.72
2023-01-22T23:09:41.242Z,93074.94
2023-01-22T23:14:44.739Z,93055.69
2023-01-22T23:19:48.064Z,93049.84
2023-01-22T23:24:51.681Z,93045.97
2023-01-22T23:29:55.152Z,93046.25
2023-01-22T23:34:58.228Z,93027.00
2023-01-22T23:40:01.924Z,93030.34
2023-01-22T23:45:05.407Z,93045.22
2023-01-22T23:50:10.764Z,93054.47
2023-01-22T23:55:15.165Z,93057.81
